Decoded Metar for VECC (CALCUTTA in INDIA) (IATA:CCU) | Meteo·Mobile Aviation Weather
aviador You're here:

VECC Decoded Metar

CALCUTTA in INDIA
Report Time2019-10-22 14:00:00
UTC Time2019-10-22 14:17:25
Flight Rules ifr IFR
WindCalm
Visibility3200 m
Phenomena:Haze
Clouds:N/A
Expected CloudBase > 1,600 ft AGL from Temp-Dew spread
CeilingNone
Temp28°C (ISA +13)
Dew Point24°C (79% RH)
Heat Index31.9°C
QNH1008 hPa
Density Alt2,080 ft
Elevation20 ft
Report Wrong Elevation
Raw Report
METAR VECC 221400Z 00000KT 3200 HZ NSC 28/24 Q1008 NOSIG=

Extra information for VECC:More info

Metar Taf Metar & Taf Last 4 Metars F.Rules Stats Wind Profile Meteogram Temp Stats Airport Information Weather charts Add Link Nearby VenuesMetar ALERT Operation Metar Decoded Social comments